createdAt,value
2023-03-31T00:00:31.360Z,97913.63
2023-03-31T00:02:37.312Z,97916.31
2023-03-31T00:04:53.258Z,97909.84
2023-03-31T00:06:58.701Z,97893.16
2023-03-31T00:09:03.736Z,97894.91
2023-03-31T00:11:11.955Z,97894.25
2023-03-31T00:13:17.650Z,97896.75
2023-03-31T00:15:23.605Z,97882.56
2023-03-31T00:17:28.652Z,97901.78
2023-03-31T00:19:33.939Z,97902.66
2023-03-31T00:21:42.944Z,97891.94
2023-03-31T00:23:47.975Z,97892.56
2023-03-31T00:25:53.004Z,97893.16
2023-03-31T00:27:58.191Z,97888.00
2023-03-31T00:30:03.248Z,97879.47
2023-03-31T00:32:08.762Z,97884.25
2023-03-31T00:34:13.965Z,97889.63
2023-03-31T00:36:21.785Z,97893.75
2023-03-31T00:38:30.075Z,97887.06
2023-03-31T00:40:35.247Z,97884.72
2023-03-31T00:42:44.041Z,97880.53
2023-03-31T00:45:31.083Z,97874.78
2023-03-31T00:47:37.400Z,97874.22
2023-03-31T00:49:46.806Z,97876.72
2023-03-31T00:51:54.398Z,97872.75
2023-03-31T00:54:06.228Z,97880.41
2023-03-31T00:56:17.501Z,97883.19
2023-03-31T00:58:28.476Z,97874.00
2023-03-31T01:00:33.937Z,97869.88
2023-03-31T01:02:41.858Z,97855.03
2023-03-31T01:04:54.896Z,97843.31
2023-03-31T01:07:06.318Z,97831.75
2023-03-31T01:09:14.191Z,97826.78
2023-03-31T01:11:22.788Z,97822.63
2023-03-31T01:13:29.322Z,97820.19
2023-03-31T01:15:34.676Z,97816.00
2023-03-31T01:17:45.065Z,97815.25
2023-03-31T01:20:11.755Z,97817.03
2023-03-31T01:23:27.978Z,97810.50
2023-03-31T01:26:32.515Z,97805.47
2023-03-31T01:28:48.456Z,97803.13
2023-03-31T01:31:34.328Z,97802.41
2023-03-31T01:34:23.589Z,97790.63
2023-03-31T01:37:01.615Z,97787.22
2023-03-31T01:39:47.852Z,97781.44
2023-03-31T01:42:04.172Z,97783.06
2023-03-31T01:44:21.270Z,97780.56
2023-03-31T01:46:34.502Z,97777.22
2023-03-31T01:48:51.067Z,97767.81
2023-03-31T01:51:01.065Z,97767.00
2023-03-31T01:53:14.653Z,97763.75
2023-03-31T01:55:25.580Z,97747.03
2023-03-31T01:57:38.657Z,97738.63
2023-03-31T01:59:55.702Z,97736.91
2023-03-31T02:02:07.373Z,97732.88
2023-03-31T02:04:18.233Z,97742.22
2023-03-31T02:06:28.933Z,97743.97
2023-03-31T02:08:40.944Z,97745.75
2023-03-31T02:10:48.574Z,97738.22
2023-03-31T02:12:58.448Z,97728.91
2023-03-31T02:15:09.503Z,97727.97
2023-03-31T02:17:22.019Z,97732.97
2023-03-31T02:19:31.275Z,97727.94
2023-03-31T02:21:40.826Z,97741.41
2023-03-31T02:23:48.929Z,97725.53
2023-03-31T02:25:59.849Z,97728.81
2023-03-31T02:28:13.482Z,97728.81
2023-03-31T02:30:18.767Z,97717.63
2023-03-31T02:32:28.054Z,97714.38
2023-03-31T02:34:33.430Z,97705.19
2023-03-31T02:36:39.595Z,97697.59
2023-03-31T02:38:52.487Z,97696.78
2023-03-31T02:40:57.556Z,97688.47
2023-03-31T02:43:03.210Z,97683.34
2023-03-31T02:45:47.602Z,97679.94
2023-03-31T02:47:52.812Z,97688.28
2023-03-31T02:50:02.916Z,97679.94
2023-03-31T02:52:35.932Z,97678.31
2023-03-31T02:55:30.794Z,97663.34
2023-03-31T02:58:12.540Z,97656.81
2023-03-31T03:00:27.180Z,97650.22
2023-03-31T03:02:52.729Z,97643.50
2023-03-31T03:05:20.535Z,97636.97
2023-03-31T03:07:51.814Z,97627.97
2023-03-31T03:10:05.593Z,97630.44
2023-03-31T03:12:19.747Z,97624.59
2023-03-31T03:14:35.125Z,97613.72
2023-03-31T03:16:45.631Z,97613.72
2023-03-31T03:19:00.709Z,97607.19
2023-03-31T03:21:05.911Z,97598.91
2023-03-31T03:23:11.013Z,97593.88
2023-03-31T03:25:20.884Z,97591.47
2023-03-31T03:27:25.950Z,97585.00
2023-03-31T03:29:31.888Z,97586.66
2023-03-31T03:31:37.048Z,97577.84
2023-03-31T03:33:42.221Z,97571.25
2023-03-31T03:35:50.073Z,97576.50
2023-03-31T03:37:55.405Z,97569.97
2023-03-31T03:40:00.993Z,97565.31
2023-03-31T03:42:06.793Z,97550.41
2023-03-31T03:44:11.835Z,97547.13
2023-03-31T03:46:17.495Z,97538.81
2023-03-31T03:48:23.107Z,97532.88
2023-03-31T03:50:28.578Z,97524.53
2023-03-31T03:52:36.296Z,97521.88
2023-03-31T03:54:41.698Z,97524.53
2023-03-31T03:56:46.770Z,97517.13
2023-03-31T03:58:52.108Z,97511.22
2023-03-31T04:00:57.828Z,97497.69
2023-03-31T04:03:02.876Z,97493.38
2023-03-31T04:05:08.730Z,97479.00
2023-03-31T04:07:13.798Z,97466.31
2023-03-31T04:09:21.435Z,97454.53
2023-03-31T04:11:28.527Z,97447.84
2023-03-31T04:13:33.589Z,97431.97
2023-03-31T04:15:38.854Z,97431.31
2023-03-31T04:17:48.836Z,97428.06
2023-03-31T04:19:54.122Z,97435.00
2023-03-31T04:22:03.238Z,97428.53
2023-03-31T04:24:12.848Z,97421.19
2023-03-31T04:26:31.268Z,97433.44
2023-03-31T04:28:36.338Z,97445.69
2023-03-31T04:30:41.667Z,97444.44
2023-03-31T04:32:47.235Z,97451.78
2023-03-31T04:35:02.808Z,97444.78
2023-03-31T04:37:11.247Z,97454.31
2023-03-31T04:39:17.704Z,97459.03
2023-03-31T04:41:27.602Z,97449.56
2023-03-31T04:43:32.813Z,97448.69
2023-03-31T04:45:37.918Z,97448.88
2023-03-31T04:47:43.692Z,97447.59
2023-03-31T04:49:48.764Z,97438.03
2023-03-31T04:51:53.857Z,97428.75
2023-03-31T04:53:58.893Z,97406.00
2023-03-31T04:56:04.270Z,97403.44
2023-03-31T04:58:12.454Z,97408.47
2023-03-31T05:00:19.209Z,97401.13
2023-03-31T05:02:25.638Z,97406.28
2023-03-31T05:04:30.855Z,97398.00
2023-03-31T05:06:36.439Z,97392.16
2023-03-31T05:08:41.881Z,97393.91
2023-03-31T05:10:47.423Z,97388.22
2023-03-31T05:12:53.066Z,97391.75
2023-03-31T05:15:00.860Z,97377.41
2023-03-31T05:17:06.278Z,97370.63
2023-03-31T05:19:11.805Z,97388.22
2023-03-31T05:21:19.872Z,97386.44
2023-03-31T05:23:24.917Z,97396.47
2023-03-31T05:25:33.076Z,97396.38
2023-03-31T05:27:39.351Z,97382.13
2023-03-31T05:29:44.410Z,97392.84
2023-03-31T05:31:53.438Z,97382.66
2023-03-31T05:33:59.075Z,97373.56
2023-03-31T05:36:04.454Z,97375.88
2023-03-31T05:38:09.872Z,97359.16
2023-03-31T05:40:15.834Z,97360.81
2023-03-31T05:42:21.298Z,97352.38
2023-03-31T05:44:27.653Z,97352.38
2023-03-31T05:46:32.743Z,97346.66
2023-03-31T05:48:40.500Z,97340.56
2023-03-31T05:50:45.553Z,97342.34
2023-03-31T05:52:50.832Z,97330.25
2023-03-31T05:54:56.353Z,97322.66
2023-03-31T05:57:01.437Z,97334.41
2023-03-31T05:59:06.766Z,97333.63
2023-03-31T06:01:19.724Z,97338.81
2023-03-31T06:03:25.178Z,97338.66
2023-03-31T06:05:33.518Z,97330.09
2023-03-31T06:07:38.652Z,97325.06
2023-03-31T06:09:43.685Z,97311.44
2023-03-31T06:11:50.432Z,97311.22
2023-03-31T06:13:56.246Z,97321.66
2023-03-31T06:16:03.404Z,97317.03
2023-03-31T06:18:10.876Z,97321.78
2023-03-31T06:20:27.110Z,97326.78
2023-03-31T06:22:35.937Z,97325.31
2023-03-31T06:24:41.073Z,97325.31
2023-03-31T06:26:46.083Z,97333.13
2023-03-31T06:28:51.716Z,97332.75
2023-03-31T06:31:04.648Z,97320.28
2023-03-31T06:33:10.034Z,97316.91
2023-03-31T06:35:15.546Z,97316.00
2023-03-31T06:37:20.600Z,97304.34
2023-03-31T06:39:28.770Z,97299.97
2023-03-31T06:41:33.806Z,97292.22
2023-03-31T06:43:38.914Z,97289.84
2023-03-31T06:45:44.569Z,97282.88
2023-03-31T06:47:49.704Z,97282.75
2023-03-31T06:49:55.306Z,97289.41
2023-03-31T06:52:00.348Z,97291.16
2023-03-31T06:54:06.398Z,97271.72
2023-03-31T06:56:14.540Z,97270.03
2023-03-31T06:58:19.668Z,97265.28
2023-03-31T07:00:27.587Z,97256.78
2023-03-31T07:02:32.970Z,97255.97
2023-03-31T07:04:38.246Z,97253.31
2023-03-31T07:06:43.313Z,97249.31
2023-03-31T07:08:48.330Z,97241.72
2023-03-31T07:10:58.267Z,97240.00
2023-03-31T07:13:05.990Z,97233.66
2023-03-31T07:15:13.117Z,97231.84
2023-03-31T07:17:18.212Z,97228.47
2023-03-31T07:19:23.334Z,97217.38
2023-03-31T07:21:29.341Z,97215.91
2023-03-31T07:23:34.376Z,97208.34
2023-03-31T07:25:40.089Z,97203.47
2023-03-31T07:27:46.342Z,97190.16
2023-03-31T07:29:53.953Z,97192.69
2023-03-31T07:31:59.348Z,97188.84
2023-03-31T07:34:05.081Z,97193.88
2023-03-31T07:36:14.148Z,97194.00
2023-03-31T07:38:19.536Z,97185.88
2023-03-31T07:40:29.855Z,97172.72
2023-03-31T07:42:35.744Z,97157.66
2023-03-31T07:44:41.486Z,97152.78
2023-03-31T07:46:49.300Z,97150.84
2023-03-31T07:48:55.375Z,97121.66
2023-03-31T07:51:00.422Z,97122.47
2023-03-31T07:53:10.852Z,97120.69
2023-03-31T07:55:16.781Z,97120.84
2023-03-31T07:57:22.877Z,97121.75
2023-03-31T07:59:27.949Z,97113.38
2023-03-31T08:01:33.534Z,97105.78
2023-03-31T08:03:41.721Z,97107.25
2023-03-31T08:05:47.048Z,97088.31
2023-03-31T08:07:53.327Z,97093.16
2023-03-31T08:09:58.764Z,97081.47
2023-03-31T08:12:04.217Z,97083.09
2023-03-31T08:14:09.258Z,97077.09
2023-03-31T08:16:14.643Z,97078.25
2023-03-31T08:18:20.183Z,97084.75
2023-03-31T08:20:28.085Z,97077.91
2023-03-31T08:22:33.333Z,97078.06
2023-03-31T08:24:38.348Z,97074.59
2023-03-31T08:26:44.656Z,97067.13
2023-03-31T08:28:50.875Z,97064.75
2023-03-31T08:30:56.318Z,97056.19
2023-03-31T08:33:02.251Z,97054.41
2023-03-31T08:35:09.793Z,97063.81
2023-03-31T08:37:17.426Z,97059.25
2023-03-31T08:39:22.489Z,97057.19
2023-03-31T08:41:44.927Z,97057.19
2023-03-31T08:43:52.175Z,97051.25
2023-03-31T08:45:57.690Z,97048.75
2023-03-31T08:48:11.438Z,97045.81
2023-03-31T08:50:21.873Z,97050.94
2023-03-31T08:52:36.029Z,97044.97
2023-03-31T08:54:46.595Z,97059.59
2023-03-31T08:56:54.646Z,97068.91
2023-03-31T08:59:02.385Z,97070.13
2023-03-31T09:01:19.900Z,97081.06
2023-03-31T09:03:34.661Z,97086.97
2023-03-31T09:05:59.664Z,97109.81
2023-03-31T09:08:17.573Z,97112.41
2023-03-31T09:10:44.080Z,97104.28
2023-03-31T09:12:56.074Z,97073.69
2023-03-31T09:15:05.300Z,97085.22
2023-03-31T09:17:24.057Z,97080.53
2023-03-31T09:19:39.929Z,97074.03
2023-03-31T09:21:49.705Z,97075.94
2023-03-31T09:24:05.063Z,97072.63
2023-03-31T09:26:23.484Z,97066.47
2023-03-31T09:28:37.851Z,97061.03
2023-03-31T09:30:45.114Z,97057.00
2023-03-31T09:32:55.267Z,97058.50
2023-03-31T09:35:04.632Z,97055.44
2023-03-31T09:37:09.759Z,97062.69
2023-03-31T09:39:18.774Z,97063.09
2023-03-31T09:41:24.026Z,97055.66
2023-03-31T09:43:31.922Z,97054.47
2023-03-31T09:45:38.396Z,97060.47
2023-03-31T09:47:46.864Z,97052.88
2023-03-31T09:49:54.348Z,97048.00
2023-03-31T09:52:15.399Z,97044.34
2023-03-31T09:54:29.891Z,97038.13
2023-03-31T09:56:46.912Z,97034.41
2023-03-31T09:58:52.522Z,97033.00
2023-03-31T10:01:04.735Z,97025.13
2023-03-31T10:03:10.672Z,97019.72
2023-03-31T10:05:32.299Z,97023.81
2023-03-31T10:07:38.036Z,97033.00
2023-03-31T10:09:46.534Z,97026.84
2023-03-31T10:12:00.914Z,97027.66
2023-03-31T10:14:09.669Z,97019.47
2023-03-31T10:16:24.209Z,97019.63
2023-03-31T10:18:38.329Z,96990.03
2023-03-31T10:20:51.460Z,96995.91
2023-03-31T10:22:56.780Z,97015.59
2023-03-31T10:25:17.532Z,97010.81
2023-03-31T10:27:28.213Z,97006.88
2023-03-31T10:29:36.447Z,97015.31
2023-03-31T10:31:41.938Z,97003.03
2023-03-31T10:33:53.565Z,96995.38
2023-03-31T10:36:01.244Z,97010.72
2023-03-31T10:38:11.969Z,97009.88
2023-03-31T10:40:24.974Z,97000.97
2023-03-31T10:42:31.598Z,96996.72
2023-03-31T10:44:39.983Z,96991.28
2023-03-31T10:46:49.946Z,96992.50
2023-03-31T10:48:55.701Z,96995.94
2023-03-31T10:51:04.331Z,96991.66
2023-03-31T10:53:16.260Z,96988.31
2023-03-31T10:55:33.666Z,96979.91
2023-03-31T10:57:50.153Z,96987.81
2023-03-31T11:00:15.836Z,96980.91
2023-03-31T11:03:02.892Z,96976.78
2023-03-31T11:05:17.194Z,96977.75
2023-03-31T11:07:41.195Z,96968.19
2023-03-31T11:10:01.786Z,96981.66
2023-03-31T11:12:22.397Z,96975.03
2023-03-31T11:14:41.174Z,96962.63
2023-03-31T11:16:52.783Z,96973.41
2023-03-31T11:19:14.504Z,96962.53
2023-03-31T11:21:27.194Z,96957.53
2023-03-31T11:23:44.085Z,96960.31
2023-03-31T11:26:00.460Z,96959.34
2023-03-31T11:28:29.362Z,96966.28
2023-03-31T11:30:41.263Z,96971.34
2023-03-31T11:33:01.978Z,96959.72
2023-03-31T11:35:45.293Z,96960.88
2023-03-31T11:38:11.695Z,96974.38
2023-03-31T11:40:37.948Z,96989.22
2023-03-31T11:42:52.344Z,97002.03
2023-03-31T11:45:05.830Z,97001.19
2023-03-31T11:47:16.838Z,97024.50
2023-03-31T11:49:27.253Z,97042.13
2023-03-31T11:51:39.560Z,97038.50
2023-03-31T11:53:47.928Z,97052.03
2023-03-31T11:55:57.939Z,97063.41
2023-03-31T11:58:08.910Z,97061.19
2023-03-31T12:00:24.231Z,97047.38
2023-03-31T12:02:42.461Z,97032.53
2023-03-31T12:04:51.014Z,97045.06
2023-03-31T12:07:02.457Z,97039.78
2023-03-31T12:09:18.542Z,97035.66
2023-03-31T12:11:32.061Z,97029.44
2023-03-31T12:13:51.353Z,97017.84
2023-03-31T12:16:07.189Z,97024.22
2023-03-31T12:18:18.918Z,97006.53
2023-03-31T12:20:33.340Z,97001.06
2023-03-31T12:22:43.297Z,97006.41
2023-03-31T12:24:49.336Z,97006.41
2023-03-31T12:27:06.245Z,97009.63
2023-03-31T12:29:24.793Z,97014.19
2023-03-31T12:31:35.604Z,97009.47
2023-03-31T12:33:45.830Z,97004.44
2023-03-31T12:36:08.218Z,97009.25
2023-03-31T12:38:28.640Z,97002.97
2023-03-31T12:40:45.722Z,96994.75
2023-03-31T12:43:07.203Z,96987.78
2023-03-31T12:45:28.004Z,96988.56
2023-03-31T12:48:02.803Z,96972.94
2023-03-31T12:50:39.576Z,96974.66
2023-03-31T12:52:52.462Z,96966.75
2023-03-31T12:55:34.446Z,96946.88
2023-03-31T12:57:39.498Z,96948.31
2023-03-31T12:59:45.967Z,96943.47
2023-03-31T13:02:24.462Z,96940.25
2023-03-31T13:04:33.922Z,96942.91
2023-03-31T13:07:03.811Z,96932.06
2023-03-31T13:09:30.229Z,96945.44
2023-03-31T13:11:43.306Z,96934.94
2023-03-31T13:16:24.092Z,96923.34
2023-03-31T13:18:36.792Z,96923.94
2023-03-31T13:20:46.305Z,96939.03
2023-03-31T13:22:52.890Z,96957.56
2023-03-31T13:25:17.958Z,96977.53
2023-03-31T13:27:36.521Z,96931.00
2023-03-31T13:29:45.167Z,96930.03
2023-03-31T13:32:11.566Z,96927.53
2023-03-31T13:34:16.974Z,96924.72
2023-03-31T13:37:11.842Z,96931.00
2023-03-31T13:40:02.050Z,96918.59
2023-03-31T13:42:33.309Z,96927.25
2023-03-31T13:45:00.162Z,96915.19
2023-03-31T13:47:40.228Z,96916.41
2023-03-31T13:50:04.122Z,96909.72
2023-03-31T13:52:16.486Z,96912.25
2023-03-31T13:55:10.125Z,96921.41
2023-03-31T13:57:56.849Z,96925.38
2023-03-31T14:00:24.106Z,96916.59
2023-03-31T14:02:48.776Z,96920.75
2023-03-31T14:05:23.772Z,96916.06
2023-03-31T14:07:39.784Z,96902.00
2023-03-31T14:09:50.008Z,96910.25
2023-03-31T14:11:56.739Z,96914.94
2023-03-31T14:14:07.630Z,96911.72
2023-03-31T14:16:13.633Z,96912.19
2023-03-31T14:18:24.349Z,96915.22
2023-03-31T14:20:43.424Z,96911.78
2023-03-31T14:23:02.739Z,96902.94
2023-03-31T14:25:18.067Z,96904.53
2023-03-31T14:27:41.773Z,96906.72
2023-03-31T14:29:54.326Z,96905.69
2023-03-31T14:32:09.995Z,96904.88
2023-03-31T14:34:48.177Z,96897.16
2023-03-31T14:37:01.842Z,96904.03
2023-03-31T14:39:14.830Z,96899.66
2023-03-31T14:41:29.956Z,96903.16
2023-03-31T14:43:38.027Z,96905.38
2023-03-31T14:45:46.265Z,96892.59
2023-03-31T14:48:00.850Z,96872.97
2023-03-31T14:50:16.205Z,96875.38
2023-03-31T14:52:24.601Z,96882.56
2023-03-31T14:54:41.539Z,96870.34
2023-03-31T14:56:48.920Z,96855.97
2023-03-31T14:58:57.071Z,96855.00
2023-03-31T15:01:03.717Z,96864.88
2023-03-31T15:03:14.153Z,96859.56
2023-03-31T15:05:31.297Z,96847.84
2023-03-31T15:07:37.626Z,96860.59
2023-03-31T15:09:52.299Z,96855.38
2023-03-31T15:12:01.593Z,96847.34
2023-03-31T15:14:07.032Z,96859.09
2023-03-31T15:16:35.151Z,96854.25
2023-03-31T15:18:44.586Z,96853.84
2023-03-31T15:20:50.133Z,96857.75
2023-03-31T15:22:55.384Z,96863.53
2023-03-31T15:25:03.313Z,96874.97
2023-03-31T15:27:14.891Z,96890.13
2023-03-31T15:29:24.342Z,96885.56
2023-03-31T15:31:30.899Z,96900.34
2023-03-31T15:33:42.162Z,96888.53
2023-03-31T15:35:47.940Z,96863.47
2023-03-31T15:37:57.049Z,96865.97
2023-03-31T15:40:09.556Z,96859.88
2023-03-31T15:42:14.676Z,96863.28
2023-03-31T15:44:40.654Z,96851.66
2023-03-31T15:47:03.199Z,96851.81
2023-03-31T15:49:22.522Z,96858.84
2023-03-31T15:51:32.947Z,96852.41
2023-03-31T15:53:48.433Z,96845.34
2023-03-31T15:56:00.290Z,96839.50
2023-03-31T15:58:05.674Z,96842.03
2023-03-31T16:02:58.052Z,96855.06
2023-03-31T16:05:08.077Z,96849.97
2023-03-31T16:07:24.062Z,96856.63
2023-03-31T16:09:40.754Z,96859.22
2023-03-31T16:11:52.669Z,96860.19
2023-03-31T16:14:03.672Z,96861.53
2023-03-31T16:16:11.875Z,96869.38
2023-03-31T16:18:20.842Z,96862.88
2023-03-31T16:20:29.524Z,96861.88
2023-03-31T16:22:41.813Z,96863.28
2023-03-31T16:24:47.065Z,96864.75
2023-03-31T16:26:54.954Z,96870.25
2023-03-31T16:29:00.750Z,96878.63
2023-03-31T16:31:07.985Z,96888.38
2023-03-31T16:33:16.152Z,96899.34
2023-03-31T16:35:21.270Z,96896.13
2023-03-31T16:37:27.878Z,96903.81
2023-03-31T16:39:32.938Z,96903.09
2023-03-31T16:41:40.356Z,96914.03
2023-03-31T16:43:49.699Z,96921.03
2023-03-31T16:45:57.344Z,96950.84
2023-03-31T16:48:15.011Z,96956.34
2023-03-31T16:50:21.574Z,96954.63
2023-03-31T16:52:26.765Z,96947.97
2023-03-31T16:54:31.821Z,96942.91
2023-03-31T16:56:37.007Z,96945.81
2023-03-31T16:58:43.052Z,96941.44
2023-03-31T17:00:50.879Z,96936.41
2023-03-31T17:02:56.052Z,96921.91
2023-03-31T17:05:12.606Z,96922.94
2023-03-31T17:07:18.576Z,96914.38
2023-03-31T17:09:23.725Z,96913.72
2023-03-31T17:11:32.439Z,96917.94
2023-03-31T17:13:40.224Z,96916.88
2023-03-31T17:15:45.387Z,96912.59
2023-03-31T17:17:53.097Z,96902.25
2023-03-31T17:19:59.430Z,96901.38
2023-03-31T17:22:04.514Z,96912.31
2023-03-31T17:24:10.821Z,96899.50
2023-03-31T17:26:16.430Z,96897.81
2023-03-31T17:28:21.822Z,96905.16
2023-03-31T17:30:27.682Z,96912.00
2023-03-31T17:32:32.749Z,96924.63
2023-03-31T17:34:41.839Z,96923.81
2023-03-31T17:36:47.666Z,96930.44
2023-03-31T17:38:52.929Z,96922.81
2023-03-31T17:40:57.993Z,96912.88
2023-03-31T17:43:03.229Z,96918.63
2023-03-31T17:45:11.877Z,96907.63
2023-03-31T17:47:16.887Z,96896.75
2023-03-31T17:49:22.027Z,96901.78
2023-03-31T17:51:32.796Z,96895.13
2023-03-31T17:53:38.362Z,96901.03
2023-03-31T17:55:43.579Z,96900.31
2023-03-31T17:57:48.833Z,96907.91
2023-03-31T17:59:54.131Z,96900.63
2023-03-31T18:01:59.346Z,96914.94
2023-03-31T18:04:04.438Z,96914.94
2023-03-31T18:06:11.894Z,96912.44
2023-03-31T18:08:19.622Z,96922.47
2023-03-31T18:10:25.907Z,96913.25
2023-03-31T18:12:30.966Z,96920.88
2023-03-31T18:14:36.810Z,96909.13
2023-03-31T18:16:42.737Z,96912.59
2023-03-31T18:18:48.446Z,96917.63
2023-03-31T18:20:53.531Z,96921.00
2023-03-31T18:22:58.811Z,96920.31
2023-03-31T18:25:08.842Z,96914.38
2023-03-31T18:27:13.885Z,96919.56
2023-03-31T18:29:19.116Z,96926.22
2023-03-31T18:31:27.059Z,96924.75
2023-03-31T18:33:32.526Z,96929.75
2023-03-31T18:35:38.172Z,96928.78
2023-03-31T18:37:43.952Z,96934.78
2023-03-31T18:39:49.018Z,96930.47
2023-03-31T18:41:58.466Z,96937.88
2023-03-31T18:44:03.719Z,96941.44
2023-03-31T18:46:10.983Z,96936.41
2023-03-31T18:48:17.982Z,96935.50
2023-03-31T18:50:23.748Z,96939.47
2023-03-31T18:52:28.766Z,96936.97
2023-03-31T18:54:34.071Z,96947.91
2023-03-31T18:56:39.369Z,96942.72
2023-03-31T18:58:47.336Z,96948.81
2023-03-31T19:00:53.104Z,96946.47
2023-03-31T19:02:58.314Z,96946.59
2023-03-31T19:05:03.939Z,96950.16
2023-03-31T19:07:09.015Z,96945.28
2023-03-31T19:09:14.286Z,96958.44
2023-03-31T19:11:20.506Z,96942.44
2023-03-31T19:13:25.585Z,96949.97
2023-03-31T19:15:34.159Z,96954.94
2023-03-31T19:17:39.206Z,96956.72
2023-03-31T19:19:45.372Z,96955.69
2023-03-31T19:21:52.483Z,96954.69
2023-03-31T19:23:57.524Z,96942.09
2023-03-31T19:26:03.396Z,96939.47
2023-03-31T19:28:09.346Z,96940.38
2023-03-31T19:30:20.668Z,96938.81
2023-03-31T19:32:28.271Z,96935.50
2023-03-31T19:34:33.929Z,96939.72
2023-03-31T19:36:40.099Z,96939.66
2023-03-31T19:38:45.337Z,96942.00
2023-03-31T19:40:52.059Z,96931.94
2023-03-31T19:42:57.099Z,96931.22
2023-03-31T19:45:02.223Z,96923.47
2023-03-31T19:47:08.099Z,96927.84
2023-03-31T19:49:16.190Z,96937.06
2023-03-31T19:51:21.988Z,96933.91
2023-03-31T19:53:27.430Z,96949.03
2023-03-31T19:55:34.388Z,96942.56
2023-03-31T19:57:39.991Z,96941.72
2023-03-31T19:59:45.237Z,96941.56
2023-03-31T20:01:50.923Z,96940.75
2023-03-31T20:03:56.705Z,96940.63
2023-03-31T20:06:10.244Z,96939.94
2023-03-31T20:08:15.417Z,96938.19
2023-03-31T20:10:21.389Z,96938.34
2023-03-31T20:12:27.089Z,96936.72
2023-03-31T20:14:32.115Z,96933.44
2023-03-31T20:16:37.207Z,96924.22
2023-03-31T20:18:48.146Z,96929.47
2023-03-31T20:20:53.283Z,96928.81
2023-03-31T20:23:01.710Z,96930.53
2023-03-31T20:25:07.918Z,96933.09
2023-03-31T20:27:12.947Z,96935.72
2023-03-31T20:29:18.155Z,96934.72
2023-03-31T20:31:27.802Z,96938.88
2023-03-31T20:33:32.878Z,96932.28
2023-03-31T20:35:37.975Z,96928.25
2023-03-31T20:37:42.997Z,96939.22
2023-03-31T20:39:51.367Z,96941.75
2023-03-31T20:41:56.684Z,96930.81
2023-03-31T20:44:02.943Z,96931.56
2023-03-31T20:46:11.012Z,96932.44
2023-03-31T20:48:16.704Z,96930.69
2023-03-31T20:50:23.092Z,96924.03
2023-03-31T20:52:28.365Z,96934.22
2023-03-31T20:54:33.511Z,96927.59
2023-03-31T20:56:44.758Z,96925.97
2023-03-31T20:58:50.956Z,96936.00
2023-03-31T21:01:01.027Z,96937.19
2023-03-31T21:03:06.904Z,96933.03
2023-03-31T21:05:12.742Z,96932.16
2023-03-31T21:07:17.845Z,96939.75
2023-03-31T21:09:24.121Z,96945.75
2023-03-31T21:11:29.915Z,96939.09
2023-03-31T21:13:38.124Z,96934.06
2023-03-31T21:15:43.906Z,96940.56
2023-03-31T21:17:49.294Z,96956.66
2023-03-31T21:19:54.329Z,96959.00
2023-03-31T21:21:59.395Z,96944.59
2023-03-31T21:24:04.773Z,96942.03
2023-03-31T21:26:12.363Z,96943.81
2023-03-31T21:28:20.197Z,96937.19
2023-03-31T21:30:28.333Z,96950.44
2023-03-31T21:32:33.696Z,96957.97
2023-03-31T21:34:38.732Z,96964.63
2023-03-31T21:36:44.058Z,96973.78
2023-03-31T21:38:50.399Z,96970.53
2023-03-31T21:40:55.997Z,96958.88
2023-03-31T21:43:01.215Z,96957.38
2023-03-31T21:45:06.870Z,96954.22
2023-03-31T21:47:14.987Z,96958.38
2023-03-31T21:49:20.025Z,96957.84
2023-03-31T21:51:27.115Z,96949.59
2023-03-31T21:53:34.438Z,96952.16
2023-03-31T21:55:40.898Z,96948.19
2023-03-31T21:57:46.293Z,96951.50
2023-03-31T21:59:51.330Z,96958.38
2023-03-31T22:01:57.642Z,96954.16
2023-03-31T22:04:06.275Z,96955.06
2023-03-31T22:06:12.651Z,96958.44
2023-03-31T22:08:18.059Z,96958.59
2023-03-31T22:10:23.284Z,96961.19
2023-03-31T22:12:28.819Z,96966.03
2023-03-31T22:14:34.338Z,96960.38
2023-03-31T22:16:39.367Z,96952.25
2023-03-31T22:18:45.119Z,96959.78
2023-03-31T22:20:53.317Z,96953.88
2023-03-31T22:22:58.328Z,96955.50
2023-03-31T22:25:03.903Z,96953.88
2023-03-31T22:27:09.199Z,96953.22
2023-03-31T22:29:18.462Z,96954.97
2023-03-31T22:31:23.874Z,96952.41
2023-03-31T22:33:28.932Z,96949.75
2023-03-31T22:35:34.295Z,96958.00
2023-03-31T22:37:42.580Z,96950.03
2023-03-31T22:39:48.002Z,96952.53
2023-03-31T22:41:53.298Z,96959.84
2023-03-31T22:43:58.322Z,96960.38
2023-03-31T22:46:07.132Z,96960.38
2023-03-31T22:48:13.984Z,96955.34
2023-03-31T22:50:19.802Z,96955.34
2023-03-31T22:52:25.206Z,96961.19
2023-03-31T22:54:33.811Z,96958.44
2023-03-31T22:56:38.816Z,96948.56
2023-03-31T22:58:43.990Z,96954.59
2023-03-31T23:00:57.441Z,96954.25
2023-03-31T23:03:02.938Z,96956.81
2023-03-31T23:05:09.634Z,96957.91
2023-03-31T23:07:16.000Z,96957.63
2023-03-31T23:09:21.441Z,96968.47
2023-03-31T23:11:29.283Z,96959.31
2023-03-31T23:13:34.686Z,96965.22
2023-03-31T23:15:41.381Z,96965.22
2023-03-31T23:17:46.480Z,96971.72
2023-03-31T23:19:52.008Z,96965.81
2023-03-31T23:21:58.499Z,96966.69
2023-03-31T23:24:05.769Z,96969.97
2023-03-31T23:26:13.549Z,96964.78
2023-03-31T23:28:21.825Z,96974.81
2023-03-31T23:30:27.452Z,96971.59
2023-03-31T23:32:32.495Z,96978.38
2023-03-31T23:34:41.661Z,96969.06
2023-03-31T23:36:47.108Z,96973.34
2023-03-31T23:38:54.449Z,96963.31
2023-03-31T23:40:59.925Z,96975.13
2023-03-31T23:43:04.960Z,96959.25
2023-03-31T23:45:14.530Z,96960.16
2023-03-31T23:47:19.585Z,96957.63
2023-03-31T23:49:24.833Z,96955.06
2023-03-31T23:51:30.121Z,96956.66
2023-03-31T23:53:35.995Z,96951.81
2023-03-31T23:55:41.873Z,96955.19
2023-03-31T23:57:47.286Z,96953.59
2023-03-31T23:59:52.821Z,96946.94
